createdAt,value
2023-06-18T00:00:10.050Z,48.50
2023-06-18T00:02:38.079Z,48.58
2023-06-18T00:05:06.621Z,48.53
2023-06-18T00:07:34.747Z,48.60
2023-06-18T00:10:05.446Z,48.69
2023-06-18T00:12:33.519Z,48.72
2023-06-18T00:15:01.616Z,48.88
2023-06-18T00:17:29.805Z,48.80
2023-06-18T00:19:57.884Z,48.99
2023-06-18T00:22:25.912Z,48.89
2023-06-18T00:24:53.985Z,49.13
2023-06-18T00:27:23.850Z,49.03
2023-06-18T00:29:52.183Z,49.15
2023-06-18T00:32:20.254Z,49.32
2023-06-18T00:34:48.428Z,49.32
2023-06-18T00:37:17.129Z,49.32
2023-06-18T00:39:45.176Z,49.42
2023-06-18T00:42:13.151Z,49.33
2023-06-18T00:44:42.538Z,49.26
2023-06-18T00:47:12.958Z,49.48
2023-06-18T00:49:41.796Z,49.52
2023-06-18T00:52:10.556Z,49.66
2023-06-18T00:57:09.424Z,49.52
2023-06-18T00:59:38.649Z,49.68
2023-06-18T01:02:09.416Z,49.84
2023-06-18T01:04:38.605Z,49.61
2023-06-18T01:07:14.147Z,49.68
2023-06-18T01:09:43.172Z,49.82
2023-06-18T01:12:11.569Z,50.20
2023-06-18T01:14:40.543Z,50.25
2023-06-18T01:17:10.148Z,50.08
2023-06-18T01:19:45.257Z,50.04
2023-06-18T01:22:20.120Z,50.24
2023-06-18T01:24:51.018Z,50.26
2023-06-18T01:27:22.860Z,49.99
2023-06-18T01:29:51.574Z,50.04
2023-06-18T01:32:22.332Z,50.19
2023-06-18T01:34:54.949Z,50.15
2023-06-18T01:37:30.257Z,50.07
2023-06-18T01:40:00.965Z,50.04
2023-06-18T01:42:28.980Z,50.23
2023-06-18T01:44:59.774Z,50.29
2023-06-18T01:47:29.386Z,50.32
2023-06-18T01:49:57.389Z,50.45
2023-06-18T01:52:25.712Z,50.18
2023-06-18T01:54:53.665Z,50.21
2023-06-18T01:57:21.759Z,50.10
2023-06-18T01:59:49.726Z,50.28
2023-06-18T02:02:17.880Z,50.34
2023-06-18T02:04:48.692Z,50.45
2023-06-18T02:07:16.766Z,50.43
2023-06-18T02:09:44.727Z,50.32
2023-06-18T02:12:13.296Z,50.44
2023-06-18T02:14:41.275Z,50.41
2023-06-18T02:17:09.273Z,50.43
2023-06-18T02:19:37.514Z,50.55
2023-06-18T02:22:07.155Z,50.38
2023-06-18T02:24:35.652Z,50.57
2023-06-18T02:27:03.734Z,50.36
2023-06-18T02:29:31.752Z,50.49
2023-06-18T02:31:59.699Z,50.39
2023-06-18T02:34:28.869Z,50.53
2023-06-18T02:36:57.089Z,50.55
2023-06-18T02:39:26.487Z,50.58
2023-06-18T02:41:54.451Z,50.70
2023-06-18T02:44:22.461Z,50.71
2023-06-18T02:46:50.497Z,50.63
2023-06-18T02:49:18.665Z,50.74
2023-06-18T02:51:46.648Z,50.67
2023-06-18T02:54:14.730Z,50.96
2023-06-18T02:56:44.418Z,51.04
2023-06-18T02:59:12.397Z,50.95
2023-06-18T03:01:40.610Z,51.00
2023-06-18T03:04:08.657Z,51.09
2023-06-18T03:06:36.948Z,51.03
2023-06-18T03:09:05.293Z,51.13
2023-06-18T03:11:33.269Z,50.85
2023-06-18T03:14:02.643Z,51.17
2023-06-18T03:16:31.607Z,51.32
2023-06-18T03:18:59.818Z,51.19
2023-06-18T03:21:28.037Z,51.22
2023-06-18T03:23:56.033Z,51.36
2023-06-18T03:26:24.186Z,51.52
2023-06-18T03:28:52.252Z,51.56
2023-06-18T03:31:22.711Z,51.58
2023-06-18T03:33:50.809Z,51.49
2023-06-18T03:36:19.418Z,51.31
2023-06-18T03:38:47.724Z,51.61
2023-06-18T03:41:15.665Z,51.65
2023-06-18T03:43:43.631Z,51.51
2023-06-18T03:46:11.649Z,51.69
2023-06-18T03:48:42.746Z,51.85
2023-06-18T03:51:10.792Z,51.80
2023-06-18T03:53:39.393Z,51.52
2023-06-18T03:56:08.219Z,51.57
2023-06-18T03:58:36.290Z,51.60
2023-06-18T04:01:04.397Z,51.43
2023-06-18T04:03:32.541Z,51.67
2023-06-18T04:06:02.005Z,51.74
2023-06-18T04:08:30.008Z,51.46
2023-06-18T04:10:58.126Z,51.81
2023-06-18T04:13:26.150Z,51.63
2023-06-18T04:15:54.080Z,51.73
2023-06-18T04:18:22.230Z,51.67
2023-06-18T04:20:50.384Z,51.85
2023-06-18T04:23:19.749Z,51.79
2023-06-18T04:25:47.756Z,51.86
2023-06-18T04:28:15.869Z,51.83
2023-06-18T04:30:43.877Z,51.97
2023-06-18T04:33:11.908Z,51.87
2023-06-18T04:35:39.915Z,52.00
2023-06-18T04:38:08.235Z,52.07
2023-06-18T04:40:37.647Z,52.04
2023-06-18T04:43:05.645Z,52.17
2023-06-18T04:45:33.734Z,52.02
2023-06-18T04:48:04.014Z,52.49
2023-06-18T04:50:32.025Z,51.97
2023-06-18T04:53:00.495Z,51.99
2023-06-18T04:55:28.959Z,52.01
2023-06-18T04:57:58.376Z,52.15
2023-06-18T05:00:27.794Z,52.55
2023-06-18T05:02:56.031Z,52.42
2023-06-18T05:05:24.225Z,52.83
2023-06-18T05:07:53.149Z,52.90
2023-06-18T05:10:21.594Z,53.04
2023-06-18T05:12:50.021Z,53.10
2023-06-18T05:15:19.546Z,53.02
2023-06-18T05:17:47.640Z,53.32
2023-06-18T05:20:15.989Z,53.34
2023-06-18T05:22:43.931Z,53.32
2023-06-18T05:25:11.878Z,53.13
2023-06-18T05:27:39.878Z,53.07
2023-06-18T05:30:09.280Z,53.03
2023-06-18T05:32:38.697Z,52.81
2023-06-18T05:35:07.165Z,52.74
2023-06-18T05:37:35.325Z,52.78
2023-06-18T05:40:07.480Z,52.67
2023-06-18T05:42:37.218Z,52.66
2023-06-18T05:45:06.132Z,52.70
2023-06-18T05:47:34.185Z,52.76
2023-06-18T05:50:03.649Z,52.70
2023-06-18T05:52:31.700Z,52.47
2023-06-18T05:54:59.639Z,52.38
2023-06-18T05:57:27.590Z,52.37
2023-06-18T05:59:55.522Z,52.49
2023-06-18T06:02:23.536Z,52.27
2023-06-18T06:04:51.510Z,52.14
2023-06-18T06:07:21.633Z,52.08
2023-06-18T06:09:49.940Z,52.18
2023-06-18T06:12:17.935Z,52.12
2023-06-18T06:14:45.975Z,51.98
2023-06-18T06:17:13.922Z,51.93
2023-06-18T06:19:41.896Z,51.90
2023-06-18T06:22:09.906Z,51.78
2023-06-18T06:24:39.327Z,51.55
2023-06-18T06:27:07.610Z,51.71
2023-06-18T06:29:36.062Z,51.49
2023-06-18T06:32:04.211Z,51.46
2023-06-18T06:34:32.169Z,51.41
2023-06-18T06:37:00.155Z,51.32
2023-06-18T06:39:28.163Z,51.40
2023-06-18T06:41:57.666Z,51.30
2023-06-18T06:44:25.619Z,51.34
2023-06-18T06:46:53.630Z,51.25
2023-06-18T06:49:21.729Z,51.29
2023-06-18T06:51:49.777Z,51.19
2023-06-18T06:54:19.026Z,51.19
2023-06-18T06:56:47.024Z,50.98
2023-06-18T06:59:16.501Z,50.92
2023-06-18T07:01:46.057Z,50.96
2023-06-18T07:04:14.085Z,50.75
2023-06-18T07:06:42.162Z,50.73
2023-06-18T07:09:10.183Z,50.40
2023-06-18T07:11:39.052Z,50.50
2023-06-18T07:14:07.138Z,50.37
2023-06-18T07:16:36.517Z,50.14
2023-06-18T07:19:05.103Z,49.95
2023-06-18T07:21:33.158Z,49.89
2023-06-18T07:24:01.096Z,50.07
2023-06-18T07:26:29.114Z,49.94
2023-06-18T07:28:57.132Z,49.93
2023-06-18T07:31:25.121Z,49.96
2023-06-18T07:33:54.560Z,49.78
2023-06-18T07:36:22.540Z,50.11
2023-06-18T07:38:50.670Z,49.97
2023-06-18T07:41:19.071Z,49.94
2023-06-18T07:43:47.169Z,49.82
2023-06-18T07:46:15.262Z,49.83
2023-06-18T07:48:43.268Z,49.80
2023-06-18T07:51:12.679Z,49.90
2023-06-18T07:53:41.232Z,49.58
2023-06-18T07:56:09.316Z,49.61
2023-06-18T07:58:37.404Z,49.46
2023-06-18T08:01:05.733Z,49.02
2023-06-18T08:03:33.850Z,48.99
2023-06-18T08:06:01.900Z,48.79
2023-06-18T08:08:31.209Z,48.82
2023-06-18T08:10:59.241Z,48.63
2023-06-18T08:13:27.236Z,48.07
2023-06-18T08:15:55.331Z,48.00
2023-06-18T08:18:23.431Z,48.05
2023-06-18T08:20:51.414Z,47.78
2023-06-18T08:23:19.381Z,47.42
2023-06-18T08:25:48.725Z,46.41
2023-06-18T08:28:16.730Z,46.37
2023-06-18T08:30:44.726Z,46.27
2023-06-18T08:33:12.999Z,46.06
2023-06-18T08:35:41.072Z,45.37
2023-06-18T08:38:09.145Z,44.79
2023-06-18T08:40:38.591Z,44.22
2023-06-18T08:43:11.694Z,44.53
2023-06-18T08:45:39.844Z,44.66
2023-06-18T08:48:19.407Z,44.18
2023-06-18T08:51:00.738Z,44.01
2023-06-18T08:53:32.634Z,43.72
2023-06-18T08:56:01.325Z,43.71
2023-06-18T08:58:30.674Z,42.85
2023-06-18T09:00:58.671Z,42.95
2023-06-18T09:03:26.720Z,42.07
2023-06-18T09:05:54.843Z,42.35
2023-06-18T09:08:22.826Z,42.42
2023-06-18T09:10:50.997Z,42.24
2023-06-18T09:13:18.984Z,42.13
2023-06-18T09:15:48.342Z,42.44
2023-06-18T09:18:16.423Z,42.47
2023-06-18T09:20:44.381Z,41.90
2023-06-18T09:23:12.402Z,42.20
2023-06-18T09:25:40.558Z,42.08
2023-06-18T09:28:08.542Z,42.05
2023-06-18T09:30:36.634Z,42.67
2023-06-18T09:33:06.015Z,42.73
2023-06-18T09:35:34.058Z,42.45
2023-06-18T09:38:07.935Z,42.20
2023-06-18T09:40:35.919Z,42.69
2023-06-18T09:43:03.963Z,42.37
2023-06-18T09:45:32.210Z,42.72
2023-06-18T09:48:00.571Z,42.51
2023-06-18T09:50:30.200Z,42.42
2023-06-18T09:52:58.601Z,42.47
2023-06-18T09:55:30.661Z,42.51
2023-06-18T09:57:59.553Z,42.52
2023-06-18T10:00:27.721Z,42.53
2023-06-18T10:02:56.539Z,42.95
2023-06-18T10:05:24.739Z,42.87
2023-06-18T10:07:54.261Z,42.36
2023-06-18T10:10:22.521Z,42.01
2023-06-18T10:12:51.247Z,42.38
2023-06-18T10:15:19.859Z,42.07
2023-06-18T10:17:50.168Z,42.14
2023-06-18T10:20:18.255Z,42.13
2023-06-18T10:22:47.440Z,42.26
2023-06-18T10:25:17.153Z,42.68
2023-06-18T10:27:45.327Z,42.25
2023-06-18T10:30:14.249Z,42.05
2023-06-18T10:32:43.427Z,41.92
2023-06-18T10:35:12.353Z,42.16
2023-06-18T10:37:40.899Z,41.79
2023-06-18T10:40:09.980Z,41.99
2023-06-18T10:42:39.402Z,41.97
2023-06-18T10:45:14.547Z,41.38
2023-06-18T10:47:42.910Z,41.83
2023-06-18T10:50:13.137Z,41.70
2023-06-18T10:52:41.541Z,41.31
2023-06-18T10:55:09.780Z,41.60
2023-06-18T10:57:39.781Z,40.92
2023-06-18T11:00:29.929Z,41.10
2023-06-18T11:02:59.900Z,41.38
2023-06-18T11:05:44.354Z,41.68
2023-06-18T11:08:13.088Z,41.32
2023-06-18T11:10:41.778Z,41.24
2023-06-18T11:13:11.971Z,41.51
2023-06-18T11:15:54.624Z,41.38
2023-06-18T11:18:23.590Z,40.69
2023-06-18T11:20:51.687Z,41.28
2023-06-18T11:23:19.939Z,41.16
2023-06-18T11:25:48.427Z,41.22
2023-06-18T11:28:17.841Z,41.04
2023-06-18T11:30:49.118Z,40.94
2023-06-18T11:33:23.224Z,41.50
2023-06-18T11:35:51.632Z,41.31
2023-06-18T11:38:20.264Z,41.32
2023-06-18T11:40:52.477Z,41.31
2023-06-18T11:43:22.061Z,41.27
2023-06-18T11:45:50.542Z,41.05
2023-06-18T11:48:18.729Z,41.09
2023-06-18T11:50:48.732Z,40.77
2023-06-18T11:53:16.781Z,40.71
2023-06-18T11:55:44.753Z,40.67
2023-06-18T11:58:13.258Z,40.60
2023-06-18T12:00:42.578Z,40.91
2023-06-18T12:03:10.680Z,40.39
2023-06-18T12:05:38.720Z,40.13
2023-06-18T12:08:11.261Z,40.52
2023-06-18T12:10:39.695Z,39.86
2023-06-18T12:13:11.518Z,39.91
2023-06-18T12:15:41.365Z,39.32
2023-06-18T12:18:27.800Z,39.02
2023-06-18T12:20:56.170Z,38.24
2023-06-18T12:23:24.243Z,37.69
2023-06-18T12:25:52.213Z,37.31
2023-06-18T12:28:24.140Z,37.37
2023-06-18T12:30:53.683Z,37.14
2023-06-18T12:33:23.733Z,36.37
2023-06-18T12:35:55.446Z,36.21
2023-06-18T12:38:24.060Z,36.13
2023-06-18T12:40:53.521Z,36.40
2023-06-18T12:43:23.736Z,35.86
2023-06-18T12:45:52.995Z,35.61
2023-06-18T12:48:24.619Z,35.16
2023-06-18T12:50:53.640Z,35.27
2023-06-18T12:53:24.065Z,35.34
2023-06-18T12:55:54.828Z,35.71
2023-06-18T12:58:23.829Z,36.05
2023-06-18T13:00:53.702Z,35.97
2023-06-18T13:03:23.788Z,36.22
2023-06-18T13:05:51.902Z,36.59
2023-06-18T13:08:22.095Z,36.72
2023-06-18T13:10:50.621Z,36.76
2023-06-18T13:13:19.243Z,36.85
2023-06-18T13:15:47.802Z,37.00
2023-06-18T13:18:16.333Z,37.06
2023-06-18T13:20:46.557Z,36.69
2023-06-18T13:23:14.694Z,37.29
2023-06-18T13:25:42.953Z,36.99
2023-06-18T13:28:11.133Z,36.98
2023-06-18T13:30:39.183Z,37.38
2023-06-18T13:33:07.485Z,37.53
2023-06-18T13:35:35.517Z,38.16
2023-06-18T13:38:05.182Z,37.96
2023-06-18T13:40:33.165Z,38.12
2023-06-18T13:43:01.652Z,38.11
2023-06-18T13:45:30.618Z,38.73
2023-06-18T13:47:58.633Z,39.17
2023-06-18T13:50:27.487Z,39.22
2023-06-18T13:52:55.534Z,39.23
2023-06-18T13:55:25.437Z,39.22
2023-06-18T13:57:53.778Z,39.17
2023-06-18T14:00:22.349Z,39.15
2023-06-18T14:02:50.624Z,38.71
2023-06-18T14:05:19.196Z,38.79
2023-06-18T14:07:47.870Z,39.11
2023-06-18T14:10:15.887Z,39.46
2023-06-18T14:12:45.339Z,39.51
2023-06-18T14:15:14.597Z,39.87
2023-06-18T14:17:47.281Z,40.57
2023-06-18T14:20:17.467Z,40.59
2023-06-18T14:22:46.142Z,40.77
2023-06-18T14:25:15.924Z,41.20
2023-06-18T14:27:48.564Z,41.33
2023-06-18T14:30:19.315Z,41.17
2023-06-18T14:32:47.596Z,41.60
2023-06-18T14:35:16.835Z,42.04
2023-06-18T14:37:44.809Z,41.79
2023-06-18T14:40:14.532Z,41.67
2023-06-18T14:42:43.502Z,41.82
2023-06-18T14:45:12.968Z,42.03
2023-06-18T14:47:42.216Z,42.51
2023-06-18T14:50:11.565Z,42.40
2023-06-18T14:52:39.566Z,42.76
2023-06-18T14:55:08.354Z,43.06
2023-06-18T14:57:36.932Z,43.18
2023-06-18T15:00:05.616Z,43.26
2023-06-18T15:02:35.248Z,43.80
2023-06-18T15:05:06.188Z,43.69
2023-06-18T15:07:34.739Z,43.91
2023-06-18T15:10:02.776Z,43.53
2023-06-18T15:12:30.797Z,43.71
2023-06-18T15:14:59.039Z,43.77
2023-06-18T15:17:27.150Z,43.52
2023-06-18T15:19:57.684Z,44.13
2023-06-18T15:22:26.030Z,44.45
2023-06-18T15:24:54.429Z,44.95
2023-06-18T15:27:22.558Z,46.31
2023-06-18T15:29:50.575Z,46.72
2023-06-18T15:32:18.993Z,47.53
2023-06-18T15:34:48.479Z,48.08
2023-06-18T15:37:18.173Z,48.52
2023-06-18T15:39:48.254Z,48.49
2023-06-18T15:42:16.468Z,48.89
2023-06-18T15:44:44.528Z,49.51
2023-06-18T15:47:12.743Z,49.89
2023-06-18T15:49:41.255Z,50.08
2023-06-18T15:52:09.521Z,50.51
2023-06-18T15:54:38.916Z,50.69
2023-06-18T15:57:20.427Z,50.98
2023-06-18T15:59:48.490Z,50.94
2023-06-18T16:02:16.686Z,51.02
2023-06-18T16:04:44.897Z,51.28
2023-06-18T16:07:12.893Z,51.16
2023-06-18T16:09:42.457Z,51.11
2023-06-18T16:12:11.551Z,51.31
2023-06-18T16:14:39.716Z,51.36
2023-06-18T16:17:08.089Z,51.57
2023-06-18T16:19:36.082Z,51.73
2023-06-18T16:22:04.326Z,51.63
2023-06-18T16:24:32.660Z,51.80
2023-06-18T16:27:04.359Z,51.71
2023-06-18T16:29:34.083Z,51.68
2023-06-18T16:32:02.095Z,51.69
2023-06-18T16:34:30.094Z,52.28
2023-06-18T16:36:58.070Z,52.37
2023-06-18T16:39:27.115Z,52.55
2023-06-18T16:41:55.153Z,52.90
2023-06-18T16:44:24.839Z,53.30
2023-06-18T16:46:53.729Z,53.79
2023-06-18T16:49:21.844Z,53.94
2023-06-18T16:51:49.835Z,54.33
2023-06-18T16:54:17.893Z,54.26
2023-06-18T16:56:49.601Z,54.55
2023-06-18T16:59:18.161Z,54.73
2023-06-18T17:01:47.669Z,54.80
2023-06-18T17:04:15.652Z,54.99
2023-06-18T17:06:43.641Z,55.21
2023-06-18T17:09:12.186Z,55.25
2023-06-18T17:11:41.080Z,55.25
2023-06-18T17:14:09.044Z,55.50
2023-06-18T17:16:37.108Z,55.65
2023-06-18T17:19:06.877Z,55.51
2023-06-18T17:21:34.886Z,55.49
2023-06-18T17:24:03.441Z,55.49
2023-06-18T17:26:32.789Z,55.56
2023-06-18T17:29:00.879Z,55.65
2023-06-18T17:31:28.897Z,55.53
2023-06-18T17:33:56.991Z,55.57
2023-06-18T17:36:26.410Z,55.69
2023-06-18T17:38:54.461Z,55.55
2023-06-18T17:41:22.497Z,55.75
2023-06-18T17:43:50.551Z,55.90
2023-06-18T17:46:18.859Z,56.07
2023-06-18T17:48:48.848Z,56.08
2023-06-18T17:51:17.204Z,56.14
2023-06-18T17:53:46.907Z,56.22
2023-06-18T17:56:14.911Z,56.51
2023-06-18T17:58:43.044Z,56.62
2023-06-18T18:01:12.322Z,56.60
2023-06-18T18:03:43.966Z,56.54
2023-06-18T18:06:12.650Z,56.34
2023-06-18T18:08:40.681Z,56.52
2023-06-18T18:11:10.058Z,56.51
2023-06-18T18:13:38.062Z,56.48
2023-06-18T18:16:06.260Z,56.42
2023-06-18T18:18:34.361Z,56.64
2023-06-18T18:21:02.395Z,56.48
2023-06-18T18:23:30.461Z,56.63
2023-06-18T18:26:09.915Z,56.62
2023-06-18T18:28:41.361Z,56.59
2023-06-18T18:31:09.447Z,56.75
2023-06-18T18:33:37.488Z,56.69
2023-06-18T18:36:06.510Z,56.81
2023-06-18T18:38:34.836Z,56.68
2023-06-18T18:41:02.837Z,56.70
2023-06-18T18:43:31.503Z,56.66
2023-06-18T18:46:01.134Z,56.48
2023-06-18T18:48:29.157Z,56.48
2023-06-18T18:50:58.303Z,56.55
2023-06-18T18:53:26.758Z,56.31
2023-06-18T18:55:56.477Z,56.30
2023-06-18T18:58:24.980Z,56.06
2023-06-18T19:00:53.037Z,56.46
2023-06-18T19:03:22.570Z,56.48
2023-06-18T19:05:52.188Z,56.38
2023-06-18T19:08:20.291Z,56.56
2023-06-18T19:10:48.348Z,56.57
2023-06-18T19:13:16.464Z,56.75
2023-06-18T19:15:44.656Z,56.75
2023-06-18T19:18:12.624Z,56.54
2023-06-18T19:20:42.045Z,56.66
2023-06-18T19:23:10.198Z,56.63
2023-06-18T19:25:38.338Z,56.69
2023-06-18T19:28:06.637Z,56.68
2023-06-18T19:30:35.162Z,56.61
2023-06-18T19:33:04.435Z,56.62
2023-06-18T19:35:32.496Z,56.77
2023-06-18T19:38:01.844Z,56.81
2023-06-18T19:40:29.869Z,56.85
2023-06-18T19:42:57.824Z,56.88
2023-06-18T19:45:26.082Z,57.07
2023-06-18T19:47:54.071Z,57.26
2023-06-18T19:50:23.360Z,57.29
2023-06-18T19:52:51.752Z,57.29
2023-06-18T19:55:21.408Z,57.42
2023-06-18T19:57:49.375Z,57.39
2023-06-18T20:00:18.512Z,57.34
2023-06-18T20:02:46.862Z,57.28
2023-06-18T20:05:15.162Z,57.49
2023-06-18T20:07:43.165Z,57.64
2023-06-18T20:10:11.599Z,57.64
2023-06-18T20:12:43.306Z,57.52
2023-06-18T20:15:12.444Z,57.40
2023-06-18T20:17:40.441Z,57.51
2023-06-18T20:20:09.879Z,57.67
2023-06-18T20:22:38.043Z,57.54
2023-06-18T20:25:06.601Z,57.74
2023-06-18T20:27:34.774Z,57.70
2023-06-18T20:30:04.474Z,57.82
2023-06-18T20:32:32.444Z,58.03
2023-06-18T20:35:01.517Z,57.72
2023-06-18T20:37:29.527Z,58.03
2023-06-18T20:39:57.508Z,57.97
2023-06-18T20:42:26.221Z,58.13
2023-06-18T20:44:54.291Z,57.90
2023-06-18T20:47:24.122Z,57.98
2023-06-18T20:49:52.240Z,57.90
2023-06-18T20:52:20.279Z,58.15
2023-06-18T20:54:48.249Z,57.95
2023-06-18T20:57:16.288Z,58.08
2023-06-18T20:59:47.654Z,58.03
2023-06-18T21:02:15.709Z,58.21
2023-06-18T21:04:45.147Z,57.98
2023-06-18T21:07:13.121Z,58.02
2023-06-18T21:09:41.145Z,58.22
2023-06-18T21:12:09.920Z,58.11
2023-06-18T21:14:37.980Z,58.28
2023-06-18T21:17:06.882Z,58.33
2023-06-18T21:19:35.148Z,58.41
2023-06-18T21:22:04.799Z,58.22
2023-06-18T21:24:32.982Z,58.40
2023-06-18T21:27:00.995Z,58.32
2023-06-18T21:29:29.004Z,58.41
2023-06-18T21:31:59.085Z,58.41
2023-06-18T21:34:27.522Z,58.36
2023-06-18T21:36:58.240Z,58.42
2023-06-18T21:39:27.968Z,58.29
2023-06-18T21:41:58.582Z,58.54
2023-06-18T21:44:26.819Z,58.27
2023-06-18T21:46:54.802Z,58.29
2023-06-18T21:49:22.848Z,58.41
2023-06-18T21:51:50.846Z,58.19
2023-06-18T21:54:18.863Z,58.23
2023-06-18T21:56:48.219Z,58.50
2023-06-18T21:59:16.276Z,58.48
2023-06-18T22:01:44.307Z,58.49
2023-06-18T22:04:12.302Z,58.52
2023-06-18T22:06:40.262Z,58.55
2023-06-18T22:09:08.275Z,58.45
2023-06-18T22:11:36.296Z,58.52
2023-06-18T22:14:05.699Z,58.62
2023-06-18T22:16:33.980Z,58.74
2023-06-18T22:19:11.113Z,58.72
2023-06-18T22:21:39.223Z,58.66
2023-06-18T22:24:07.570Z,58.78
2023-06-18T22:26:35.632Z,58.37
2023-06-18T22:29:05.088Z,58.67
2023-06-18T22:31:33.210Z,58.91
2023-06-18T22:34:01.486Z,58.84
2023-06-18T22:36:29.484Z,58.56
2023-06-18T22:38:57.485Z,58.88
2023-06-18T22:41:25.503Z,58.84
2023-06-18T22:43:53.516Z,58.75
2023-06-18T22:46:23.681Z,58.88
2023-06-18T22:48:51.873Z,58.75
2023-06-18T22:51:19.904Z,58.60
2023-06-18T22:53:47.852Z,58.50
2023-06-18T22:56:15.913Z,58.43
2023-06-18T22:58:43.964Z,58.59
2023-06-18T23:01:11.977Z,58.77
2023-06-18T23:03:41.520Z,58.59
2023-06-18T23:06:09.863Z,58.60
2023-06-18T23:08:38.274Z,58.59
2023-06-18T23:11:06.260Z,58.64
2023-06-18T23:13:34.285Z,58.65
2023-06-18T23:16:02.241Z,58.71
2023-06-18T23:18:30.301Z,58.61
2023-06-18T23:21:00.983Z,58.40
2023-06-18T23:23:29.968Z,58.54
2023-06-18T23:25:58.000Z,58.80
2023-06-18T23:28:26.287Z,58.63
2023-06-18T23:30:54.426Z,58.48
2023-06-18T23:33:22.392Z,58.69
2023-06-18T23:35:52.702Z,58.78
2023-06-18T23:38:22.243Z,58.64
2023-06-18T23:40:50.173Z,58.58
2023-06-18T23:43:18.168Z,58.65
2023-06-18T23:45:46.186Z,58.70
2023-06-18T23:48:14.195Z,58.81
2023-06-18T23:50:43.295Z,58.79
2023-06-18T23:53:11.414Z,58.63
2023-06-18T23:55:41.157Z,58.59
2023-06-18T23:58:09.680Z,58.88
